Hauptseite
METAR-TAF:

METAR-TAF

Flughäfen :

Flughafen Tianjin

Tianjin, China

Breite: 39-11N, Länge: 117-21E, Höhe: 3 m

Beobachtung

Neuester Wetterbericht von vor 27 Minuten, um 03:00 UTC
Wind 8 kt aus Südwest, variierte zwischen Süd und West
Temperatur 33°C
Luftfeuchtigkeit 44%
Luftdruck 1002 hPa
Sichtweite 10 km oder mehr
keine Wolken unter 1500 m und keine Kumulonimbus oder Gewitterwolken

METAR: ZBTJ 180300Z 22004MPS 170V260 CAVOK 33/19 Q1002 NOSIG

Zeit: 11:27 (03:27 UTC)

Prognose

Neuester Wetterbericht von vor 6 Stunden und 22 Minuten, um 21:05 UTC
Gültige Prognose vom 18 um 00 UTC bis 18 um 24 UTC
Wind 8 kt aus Süd/Südwest
Sichtweite: 5000 m
trockener Dunst,

TAF: ZBTJ 172105Z 1800/1824 21004MPS 5000 HZ NSC TX37/1806Z TN25/1821Z

Wetterbeobachtungen und Prognosen von mehr als 4000 Flughäfen (METAR und TAF Bericht).

Die verfügbaren Stationen werden durch gelbe und rote Markierungen auf der Karte dargestellt.

Führen Sie die Maus auf sie, um den Namen der Station zu sehen.

Darauf klicken, um die Beobachtung von Wetterbeobachtungen und Prognosen zu sehen.

Um die Karte zu ändern : klicken Sie auf den grünen Tasten mit einem schwarzen Kreuz Zum Vergrößern, auf den grünen Button mit einem Gedankenstrich zu verkleinern, oder auf die grünen Pfeile für benachbarte Karten.


METAR-TAF: